Time;durP1;ratioP1;P1;durP2;ratioP2;P2;SDS_P1;SDS_P2;PMS_P1;PMS_P2;Temp;Humidity;BMP_temperature;BMP_pressure;BME280_temperature;BME280_humidity;BME280_pressure;Samples;Min_cycle;Max_cycle;Signal;HPM_P1;HPM_P2
2020/12/13 00:03:04;;;;;;;49.00;23.27;;;3.70;99.90;;;;;;8236925;28;19933;-74
2020/12/13 00:07:06;;;;;;;47.63;23.63;;;4.70;99.90;;;;;;8255325;28;20054;-74
2020/12/13 00:11:08;;;;;;;45.28;22.27;;;3.80;99.90;;;;;;8252017;28;20537;-75
2020/12/13 00:15:09;;;;;;;48.27;23.73;;;4.00;99.90;;;;;;8256147;28;20534;-74
2020/12/13 00:19:11;;;;;;;48.20;23.80;;;3.50;99.90;;;;;;8240034;28;20104;-74
2020/12/13 00:23:15;;;;;;;35.40;17.80;;;3.60;99.90;;;;;;8240039;28;20651;-74
2020/12/13 00:27:16;;;;;;;48.38;23.15;;;4.20;99.90;;;;;;8250502;28;20046;-73
2020/12/13 00:31:18;;;;;;;49.65;24.65;;;4.20;99.90;;;;;;8261531;28;20471;-74
2020/12/13 00:35:20;;;;;;;;;;;2.50;99.90;;;;;;8251632;28;20424;-74
2020/12/13 00:39:22;;;;;;;31.88;15.48;;;4.30;99.90;;;;;;8255984;28;20394;-74
2020/12/13 00:43:23;;;;;;;46.30;22.87;;;3.90;99.90;;;;;;8244272;28;20512;-74
2020/12/13 00:47:25;;;;;;;31.00;14.07;;;3.60;99.90;;;;;;8255401;28;20065;-74
2020/12/13 00:51:28;;;;;;;45.50;22.58;;;3.60;99.90;;;;;;8244609;28;20054;-73
2020/12/13 00:55:31;;;;;;;47.30;20.88;;;3.90;99.90;;;;;;8236689;28;20108;-73
2020/12/13 00:59:33;;;;;;;45.42;21.95;;;3.90;99.90;;;;;;8254303;28;20464;-73
2020/12/13 01:03:34;;;;;;;43.10;20.85;;;5.00;99.90;;;;;;8252087;28;20968;-73
2020/12/13 01:07:36;;;;;;;41.60;21.40;;;3.40;99.90;;;;;;8263971;28;20058;-72
2020/12/13 01:11:37;;;;;;;;;;;3.50;99.90;;;;;;8254318;28;20088;-73
2020/12/13 01:15:39;;;;;;;42.00;20.20;;;4.40;99.90;;;;;;8255975;28;19969;-72
2020/12/13 01:19:46;;;;;;;45.17;22.20;;;4.90;99.90;;;;;;8236094;28;20057;-72
2020/12/13 01:23:48;;;;;;;42.88;21.00;;;4.00;99.90;;;;;;8250798;28;20076;-73
2020/12/13 01:27:50;;;;;;;45.95;20.65;;;4.40;99.90;;;;;;8261124;28;20058;-73
2020/12/13 01:31:51;;;;;;;39.60;19.50;;;4.70;99.90;;;;;;8231131;28;20046;-73
2020/12/13 01:35:53;;;;;;;42.67;19.77;;;3.60;99.90;;;;;;8252866;28;20464;-72
2020/12/13 01:39:54;;;;;;;36.93;19.30;;;3.60;99.90;;;;;;8254856;28;20053;-72
2020/12/13 01:44:01;;;;;;;39.57;18.83;;;4.20;99.90;;;;;;8238953;28;20108;-72
2020/12/13 01:48:03;;;;;;;38.70;18.88;;;3.70;99.90;;;;;;8234484;28;20512;-72
2020/12/13 01:52:41;;;;;;;29.00;13.95;;;4.10;99.90;;;;;;8256209;28;20050;-73
2020/12/13 01:56:33;;;;;;;40.05;19.40;;;3.90;99.90;;;;;;8254313;28;20061;-72
2020/12/13 02:00:35;;;;;;;37.15;18.83;;;3.50;99.90;;;;;;8244142;28;20079;-73
2020/12/13 02:04:38;;;;;;;39.83;18.65;;;3.80;99.90;;;;;;8263904;28;20105;-72
2020/12/13 02:08:41;;;;;;;37.08;18.40;;;4.20;99.90;;;;;;8247871;28;20046;-73
2020/12/13 02:12:43;;;;;;;41.72;20.33;;;4.10;99.90;;;;;;8239136;28;20034;-73
2020/12/13 02:16:45;;;;;;;36.63;16.95;;;4.60;99.90;;;;;;8253449;28;20120;-73
2020/12/13 02:20:47;;;;;;;;;;;3.80;99.90;;;;;;8234670;28;20457;-72
2020/12/13 02:24:48;;;;;;;36.88;18.13;;;4.30;99.90;;;;;;8245674;28;20596;-72
2020/12/13 02:28:50;;;;;;;40.17;19.37;;;3.70;99.90;;;;;;8245283;28;20096;-72
2020/12/13 02:32:51;;;;;;;39.87;19.60;;;3.80;99.90;;;;;;8234601;28;20086;-73
2020/12/13 02:36:53;;;;;;;43.63;21.13;;;5.20;99.90;;;;;;8222781;28;20054;-73
2020/12/13 02:40:55;;;;;;;33.53;16.57;;;4.40;99.90;;;;;;8258968;28;20536;-72
2020/12/13 02:44:56;;;;;;;40.60;19.35;;;4.20;99.90;;;;;;8228578;28;20046;-72
2020/12/13 02:48:57;;;;;;;43.83;19.83;;;3.70;99.90;;;;;;8253655;28;20085;-72
2020/12/13 02:52:59;;;;;;;35.33;16.53;;;4.00;99.90;;;;;;8252177;28;20058;-72
2020/12/13 02:57:01;;;;;;;38.03;19.27;;;4.00;99.90;;;;;;8239189;28;20486;-72
2020/12/13 03:01:02;;;;;;;38.83;19.20;;;5.30;99.90;;;;;;8259866;28;20471;-72
2020/12/13 03:05:06;;;;;;;39.75;18.10;;;4.20;99.90;;;;;;8240001;28;20101;-72
2020/12/13 03:09:08;;;;;;;40.00;19.70;;;3.60;99.90;;;;;;8235498;28;20058;-71
2020/12/13 03:13:10;;;;;;;;;;;4.10;99.90;;;;;;8232785;28;20058;-72
2020/12/13 03:17:11;;;;;;;39.08;20.05;;;3.60;99.90;;;;;;8260635;28;19954;-72
2020/12/13 03:21:13;;;;;;;34.17;14.57;;;4.10;99.90;;;;;;8250138;28;20058;-73
2020/12/13 03:25:14;;;;;;;32.43;13.97;;;4.70;99.90;;;;;;8251148;28;20058;-72
2020/12/13 03:29:16;;;;;;;37.53;19.53;;;4.60;99.90;;;;;;8263114;28;20173;-72
2020/12/13 03:33:17;;;;;;;39.90;20.25;;;3.60;99.90;;;;;;8243501;28;20494;-72
2020/12/13 03:37:19;;;;;;;38.67;18.03;;;3.90;99.90;;;;;;8255190;28;20100;-72
2020/12/13 03:41:21;;;;;;;39.20;18.45;;;4.10;99.90;;;;;;8256513;28;20457;-72
2020/12/13 03:45:23;;;;;;;38.07;17.37;;;4.10;99.90;;;;;;8252135;28;20101;-72
2020/12/13 03:49:25;;;;;;;;;;;4.40;99.90;;;;;;8258755;28;20049;-73
2020/12/13 03:53:26;;;;;;;34.65;17.30;;;4.40;99.90;;;;;;8260575;28;19929;-73
2020/12/13 03:57:28;;;;;;;37.15;18.38;;;4.00;99.90;;;;;;8249536;28;20142;-72
2020/12/13 04:01:29;;;;;;;41.37;23.33;;;4.00;99.90;;;;;;8233024;28;20151;-73
2020/12/13 04:05:33;;;;;;;42.22;19.35;;;4.50;99.90;;;;;;8237588;28;20035;-73
2020/12/13 04:09:34;;;;;;;32.15;16.23;;;3.80;99.90;;;;;;8243552;28;20308;-72
2020/12/13 04:13:36;;;;;;;38.58;17.02;;;4.20;99.90;;;;;;8257845;28;20627;-72
2020/12/13 04:17:37;;;;;;;35.50;18.30;;;4.70;99.90;;;;;;8249458;28;20053;-71
2020/12/13 04:21:39;;;;;;;34.97;18.08;;;3.60;99.90;;;;;;8236708;28;20412;-71
2020/12/13 04:25:40;;;;;;;37.75;17.27;;;4.10;99.90;;;;;;8263330;28;20068;-72
2020/12/13 04:29:42;;;;;;;34.58;17.58;;;4.50;99.90;;;;;;8254461;28;20072;-72
2020/12/13 04:33:43;;;;;;;37.57;17.87;;;3.90;99.90;;;;;;8250254;28;20050;-72
2020/12/13 04:37:44;;;;;;;32.10;15.40;;;3.80;99.90;;;;;;8223004;28;20210;-72
2020/12/13 04:41:46;;;;;;;32.90;17.43;;;3.60;99.90;;;;;;8234898;28;20061;-71
2020/12/13 04:45:48;;;;;;;41.10;18.47;;;4.10;99.90;;;;;;8263311;28;20062;-72
2020/12/13 04:49:51;;;;;;;35.78;17.38;;;4.50;99.90;;;;;;8227330;28;20054;-71
2020/12/13 04:54:04;;;;;;;29.27;14.52;;;4.30;99.90;;;;;;8214829;28;20475;-71
2020/12/13 04:58:09;;;;;;;36.45;19.15;;;3.70;99.90;;;;;;8243617;28;20049;-72
2020/12/13 05:02:13;;;;;;;33.72;17.27;;;4.20;99.90;;;;;;8256034;28;20054;-72
2020/12/13 05:06:15;;;;;;;36.80;19.23;;;4.30;99.90;;;;;;8246349;28;20069;-73
2020/12/13 05:10:16;;;;;;;36.15;17.27;;;4.10;99.90;;;;;;8245555;28;20116;-72
2020/12/13 05:14:18;;;;;;;39.90;18.60;;;4.30;99.90;;;;;;8259953;28;20065;-73
2020/12/13 05:18:20;;;;;;;36.28;18.85;;;4.40;99.90;;;;;;8237148;28;20474;-72
2020/12/13 05:22:22;;;;;;;35.58;18.42;;;4.10;99.90;;;;;;8264468;28;20053;-73
2020/12/13 05:26:24;;;;;;;34.97;19.17;;;4.40;99.90;;;;;;8256076;28;20508;-72
2020/12/13 05:30:34;;;;;;;41.47;19.43;;;3.80;99.90;;;;;;8252173;28;20480;-71
2020/12/13 05:34:38;;;;;;;32.00;16.45;;;4.10;99.90;;;;;;8250481;28;20083;-71
2020/12/13 05:38:41;;;;;;;33.13;17.27;;;4.10;99.90;;;;;;8253971;28;20072;-71
2020/12/13 05:42:46;;;;;;;36.92;17.95;;;4.20;99.90;;;;;;8255130;28;20419;-71
2020/12/13 05:55:16;;;;;;;36.67;18.42;;;4.30;99.90;;;;;;8251837;28;20475;-72
2020/12/13 05:59:18;;;;;;;;;;;4.10;99.90;;;;;;8246509;28;20520;-73
2020/12/13 06:03:48;;;;;;;31.75;15.95;;;4.40;99.90;;;;;;8227250;28;20315;-71
2020/12/13 06:07:51;;;;;;;28.13;15.07;;;4.80;99.90;;;;;;8246428;28;20104;-73
2020/12/13 06:11:58;;;;;;;31.83;15.93;;;3.80;99.90;;;;;;8235645;28;20064;-72
2020/12/13 06:16:00;;;;;;;30.70;16.05;;;4.30;99.90;;;;;;8252777;28;20049;-72
2020/12/13 06:20:02;;;;;;;31.83;15.50;;;4.80;99.90;;;;;;8262667;28;20043;-72
2020/12/13 06:24:06;;;;;;;30.50;16.07;;;4.20;99.90;;;;;;8233155;28;20096;-71
2020/12/13 06:28:10;;;;;;;33.67;16.83;;;4.70;99.90;;;;;;8245238;28;20467;-72
2020/12/13 06:32:12;;;;;;;29.65;15.05;;;4.20;99.90;;;;;;8250231;28;20496;-72
2020/12/13 06:36:14;;;;;;;28.55;15.73;;;4.20;99.90;;;;;;8233253;28;20053;-73
2020/12/13 06:40:20;;;;;;;27.17;15.13;;;4.10;99.90;;;;;;8260048;28;20046;-72
2020/12/13 06:44:22;;;;;;;27.50;15.35;;;4.30;99.90;;;;;;8232170;28;20054;-73
2020/12/13 06:48:36;;;;;;;27.02;13.95;;;3.80;99.90;;;;;;8230773;28;20405;-71
2020/12/13 06:52:39;;;;;;;24.95;14.57;;;3.80;99.90;;;;;;8232691;28;20423;-72
2020/12/13 06:56:42;;;;;;;23.38;13.88;;;3.70;99.90;;;;;;8248315;28;20417;-73
2020/12/13 07:00:49;;;;;;;27.27;15.63;;;3.90;99.90;;;;;;8269814;28;20050;-72
2020/12/13 07:04:50;;;;;;;26.60;14.98;;;4.30;99.90;;;;;;8248123;28;20047;-72
2020/12/13 07:08:55;;;;;;;26.73;15.27;;;4.10;99.90;;;;;;8247101;28;20092;-72
2020/12/13 07:12:58;;;;;;;28.08;15.15;;;4.20;99.90;;;;;;8261149;28;20069;-71
2020/12/13 07:17:07;;;;;;;25.38;15.45;;;3.90;99.90;;;;;;8271888;28;20050;-72
2020/12/13 07:21:14;;;;;;;25.20;15.23;;;4.80;99.90;;;;;;8260248;28;20050;-72
2020/12/13 07:25:15;;;;;;;28.30;14.48;;;4.20;99.90;;;;;;8259857;28;20058;-72
2020/12/13 07:29:19;;;;;;;27.20;15.30;;;4.30;99.90;;;;;;8244010;28;20054;-71
2020/12/13 07:33:21;;;;;;;21.88;10.55;;;4.30;99.90;;;;;;8263311;28;20066;-72
2020/12/13 07:37:23;;;;;;;27.33;15.17;;;4.50;99.90;;;;;;8263291;28;20549;-71
2020/12/13 07:41:27;;;;;;;30.08;16.45;;;4.20;99.90;;;;;;8242529;28;20120;-71
2020/12/13 07:45:29;;;;;;;30.80;15.82;;;4.20;99.90;;;;;;8245293;28;20499;-72
2020/12/13 07:49:30;;;;;;;29.03;16.80;;;4.20;99.90;;;;;;8260602;28;20069;-72
2020/12/13 07:53:31;;;;;;;29.05;15.82;;;4.20;99.90;;;;;;8243926;28;20457;-71
2020/12/13 07:57:35;;;;;;;27.87;14.83;;;4.30;99.90;;;;;;8243435;28;20112;-72
2020/12/13 08:01:38;;;;;;;27.35;16.33;;;4.30;99.90;;;;;;8228404;28;20061;-72
2020/12/13 08:05:42;;;;;;;27.17;15.15;;;4.40;99.90;;;;;;8258991;28;20519;-71
2020/12/13 08:09:43;;;;;;;27.67;15.60;;;4.00;99.90;;;;;;8245984;28;20039;-72
2020/12/13 08:13:55;;;;;;;28.93;16.33;;;3.80;99.90;;;;;;8231234;28;20058;-72
2020/12/13 08:18:06;;;;;;;29.10;17.23;;;4.10;99.90;;;;;;8257159;28;20053;-72
2020/12/13 08:22:08;;;;;;;;;;;4.10;99.90;;;;;;8255591;28;20537;-72
2020/12/13 08:26:11;;;;;;;32.20;14.90;;;3.80;99.90;;;;;;8252774;28;20366;-72
2020/12/13 08:30:13;;;;;;;27.52;16.27;;;4.00;99.90;;;;;;8243397;28;20068;-71
2020/12/13 08:34:14;;;;;;;29.20;16.80;;;4.10;99.90;;;;;;8247652;28;20077;-71
2020/12/13 08:38:16;;;;;;;29.50;16.48;;;4.10;99.90;;;;;;8236797;28;20097;-72
2020/12/13 08:42:23;;;;;;;31.20;16.80;;;3.90;99.90;;;;;;8232010;28;20511;-72
2020/12/13 08:46:41;;;;;;;31.65;15.93;;;4.00;99.90;;;;;;8223896;28;20048;-72
2020/12/13 08:50:43;;;;;;;26.35;15.32;;;3.90;99.90;;;;;;8234222;28;20057;-69
2020/12/13 08:54:54;;;;;;;29.53;16.60;;;3.70;99.90;;;;;;8245545;28;20413;-70
2020/12/13 08:58:57;;;;;;;27.55;15.15;;;4.00;99.90;;;;;;8250196;28;20508;-70
2020/12/13 09:03:04;;;;;;;30.70;16.00;;;3.70;99.90;;;;;;8254236;28;20045;-70
2020/12/13 09:07:05;;;;;;;35.30;17.75;;;4.10;99.90;;;;;;8234337;28;20073;-69
2020/12/13 09:11:07;;;;;;;33.60;17.17;;;4.00;99.90;;;;;;8244265;28;20159;-70
2020/12/13 09:15:13;;;;;;;30.63;16.42;;;3.60;99.90;;;;;;8263587;28;20069;-69
2020/12/13 09:19:14;;;;;;;35.13;17.58;;;3.00;99.90;;;;;;8236886;28;20046;-69
2020/12/13 09:23:20;;;;;;;30.60;16.67;;;3.70;99.90;;;;;;8251349;28;20188;-69
2020/12/13 09:27:23;;;;;;;30.60;16.40;;;3.70;99.90;;;;;;8235524;28;20482;-70
2020/12/13 09:31:25;;;;;;;29.95;16.42;;;4.00;99.90;;;;;;8260088;28;20050;-69
2020/12/13 09:35:32;;;;;;;28.02;15.52;;;3.60;99.90;;;;;;8239085;28;20586;-70
2020/12/13 09:39:34;;;;;;;31.05;14.48;;;3.90;99.90;;;;;;8239331;28;20433;-69
2020/12/13 09:43:35;;;;;;;28.67;16.47;;;4.00;99.90;;;;;;8232896;28;20120;-69
2020/12/13 09:47:37;;;;;;;30.50;16.40;;;4.00;99.90;;;;;;8249281;28;20499;-69
2020/12/13 09:51:39;;;;;;;23.98;13.32;;;3.70;99.90;;;;;;8247244;28;20500;-69
2020/12/13 09:55:40;;;;;;;26.60;14.77;;;3.80;99.90;;;;;;8237831;28;20057;-70
2020/12/13 09:59:41;;;;;;;29.83;14.17;;;3.70;99.90;;;;;;8233093;28;20514;-71
2020/12/13 10:03:47;;;;;;;28.42;15.13;;;4.00;99.90;;;;;;8235649;28;20042;-72
2020/12/13 10:12:09;;;;;;;26.42;14.18;;;3.90;99.90;;;;;;8240755;28;20089;-71
2020/12/13 10:16:11;;;;;;;;;;;3.70;99.90;;;;;;8251814;28;20053;-71
2020/12/13 10:20:12;;;;;;;27.63;15.57;;;4.10;99.90;;;;;;8251682;28;20391;-71
2020/12/13 10:24:14;;;;;;;30.00;16.43;;;4.00;99.90;;;;;;8253050;28;20458;-71
2020/12/13 10:28:16;;;;;;;27.35;14.35;;;4.00;99.90;;;;;;8247993;28;20451;-71
2020/12/13 10:32:17;;;;;;;29.37;15.50;;;4.10;99.90;;;;;;8251484;28;20416;-70
2020/12/13 10:36:19;;;;;;;;;;;3.90;99.90;;;;;;8243161;28;20928;-70
2020/12/13 10:40:21;;;;;;;28.30;14.98;;;3.90;99.90;;;;;;8252477;28;19927;-70
2020/12/13 10:44:22;;;;;;;25.50;14.07;;;3.80;99.90;;;;;;8245972;28;20050;-71
2020/12/13 10:48:24;;;;;;;21.23;10.27;;;4.00;99.90;;;;;;8234633;28;20456;-70
2020/12/13 10:52:26;;;;;;;31.05;16.08;;;4.20;99.90;;;;;;8236147;28;20406;-70
2020/12/13 10:56:28;;;;;;;30.07;15.40;;;4.00;99.90;;;;;;8247535;28;20558;-70
2020/12/13 11:00:29;;;;;;;28.47;15.10;;;3.80;99.90;;;;;;8231498;28;20471;-70
2020/12/13 11:04:31;;;;;;;30.60;16.57;;;4.10;99.90;;;;;;8233705;28;20052;-71
2020/12/13 11:08:32;;;;;;;32.40;16.20;;;4.00;99.90;;;;;;8250441;28;20050;-70
2020/12/13 11:12:34;;;;;;;32.80;16.50;;;4.10;99.90;;;;;;8236567;28;20073;-70
2020/12/13 11:16:35;;;;;;;30.10;15.23;;;3.70;99.90;;;;;;8247546;28;20480;-72
2020/12/13 11:20:37;;;;;;;28.02;13.85;;;4.00;99.90;;;;;;8234014;28;20042;-69
2020/12/13 11:24:38;;;;;;;30.55;15.13;;;3.90;99.90;;;;;;8248788;28;20049;-70
2020/12/13 11:28:40;;;;;;;31.33;16.37;;;4.10;99.90;;;;;;8250427;28;20105;-70
2020/12/13 11:32:44;;;;;;;31.97;16.83;;;4.10;99.90;;;;;;8249422;28;20415;-71
2020/12/13 11:36:45;;;;;;;36.20;17.63;;;3.80;99.90;;;;;;8246988;28;20093;-71
2020/12/13 11:40:47;;;;;;;33.97;17.07;;;3.70;99.90;;;;;;8240968;28;20089;-70
2020/12/13 11:44:50;;;;;;;31.02;15.32;;;3.80;99.90;;;;;;8235458;28;20062;-70
2020/12/13 11:48:51;;;;;;;29.38;16.70;;;4.10;99.90;;;;;;8241963;28;20053;-69
2020/12/13 11:52:57;;;;;;;33.95;16.45;;;4.00;99.90;;;;;;8240034;28;20131;-69
2020/12/13 11:56:59;;;;;;;35.67;18.52;;;3.80;99.90;;;;;;8262340;28;20099;-69
2020/12/13 12:01:01;;;;;;;;;;;4.30;99.90;;;;;;8241399;28;20415;-70
2020/12/13 12:05:02;;;;;;;32.00;15.98;;;3.80;99.90;;;;;;8253939;28;20403;-70
2020/12/13 12:09:04;;;;;;;31.03;16.37;;;3.60;99.90;;;;;;8238980;28;20042;-70
2020/12/13 12:13:06;;;;;;;30.52;15.68;;;4.00;99.90;;;;;;8244811;28;20464;-71
2020/12/13 12:17:07;;;;;;;31.17;15.17;;;3.80;99.90;;;;;;8260805;28;20043;-70
2020/12/13 12:21:16;;;;;;;32.15;15.77;;;3.80;99.90;;;;;;8242082;28;20053;-70
2020/12/13 12:25:18;;;;;;;32.55;17.23;;;4.00;99.90;;;;;;8257232;28;20456;-70
2020/12/13 12:29:22;;;;;;;33.35;17.05;;;3.70;99.90;;;;;;8258374;28;20050;-69
2020/12/13 12:33:23;;;;;;;33.33;16.98;;;3.90;99.90;;;;;;8263797;28;20120;-70
2020/12/13 12:37:26;;;;;;;31.03;14.47;;;4.00;99.90;;;;;;8251561;28;20042;-70
2020/12/13 12:41:27;;;;;;;37.17;18.02;;;3.90;99.90;;;;;;8256009;28;20046;-71
2020/12/13 12:45:29;;;;;;;37.27;17.63;;;3.90;99.90;;;;;;8255639;28;20049;-69
2020/12/13 12:49:30;;;;;;;32.88;15.82;;;4.00;99.90;;;;;;8252136;28;20100;-71
2020/12/13 12:53:32;;;;;;;42.70;18.13;;;4.30;99.90;;;;;;8261146;28;20046;-70
2020/12/13 12:57:34;;;;;;;37.13;18.55;;;4.00;99.90;;;;;;8237363;28;20096;-70
2020/12/13 13:01:41;;;;;;;85.00;34.53;;;4.60;99.90;;;;;;8252516;28;20057;-70
2020/12/13 13:06:06;;;;;;;48.92;23.48;;;4.50;99.90;;;;;;8253066;28;20395;-69
2020/12/13 13:10:20;;;;;;;38.80;20.58;;;4.30;99.90;;;;;;8260188;28;20411;-70
2020/12/13 13:14:21;;;;;;;37.00;19.15;;;4.30;99.90;;;;;;8266659;28;21958;-70
2020/12/13 13:18:26;;;;;;;38.50;23.17;;;4.40;99.90;;;;;;8242983;28;20146;-70
2020/12/13 13:22:28;;;;;;;35.42;17.67;;;4.40;99.90;;;;;;8241177;28;20046;-70
2020/12/13 13:26:29;;;;;;;35.43;18.40;;;4.10;99.90;;;;;;8256056;28;20129;-71
2020/12/13 13:30:31;;;;;;;42.70;20.42;;;4.60;99.90;;;;;;8246086;28;20133;-71
2020/12/13 13:34:32;;;;;;;41.93;19.37;;;4.80;99.90;;;;;;8236353;28;20088;-72
2020/12/13 13:38:34;;;;;;;41.87;19.77;;;4.30;99.90;;;;;;8254379;28;20097;-71
2020/12/13 13:42:37;;;;;;;47.10;19.87;;;4.40;99.90;;;;;;8254203;28;20196;-70
2020/12/13 13:51:03;;;;;;;43.63;19.40;;;4.30;99.90;;;;;;8242492;28;20052;-70
2020/12/13 13:55:31;;;;;;;39.23;18.00;;;4.60;99.90;;;;;;8251117;28;20082;-71
2020/12/13 13:59:33;;;;;;;38.50;18.33;;;4.20;99.90;;;;;;8246728;28;20054;-70
2020/12/13 14:03:35;;;;;;;43.85;21.25;;;4.20;99.90;;;;;;8233581;28;20050;-70
2020/12/13 14:07:53;;;;;;;43.73;19.60;;;4.00;99.90;;;;;;8243170;28;20409;-69
2020/12/13 14:11:55;;;;;;;43.67;20.13;;;4.20;99.90;;;;;;8199557;28;20060;-71
2020/12/13 14:15:56;;;;;;;49.08;21.40;;;4.00;99.90;;;;;;8239403;28;20684;-70
2020/12/13 14:19:58;;;;;;;49.15;21.25;;;4.20;99.90;;;;;;8220640;28;20468;-71
2020/12/13 14:24:00;;;;;;;48.42;21.50;;;4.40;99.90;;;;;;8238936;28;20108;-70
2020/12/13 14:28:02;;;;;;;51.90;22.37;;;4.20;99.90;;;;;;8227563;28;20042;-69
2020/12/13 14:32:03;;;;;;;51.60;20.63;;;4.00;99.90;;;;;;8239846;28;20436;-69
2020/12/13 14:36:05;;;;;;;46.78;20.55;;;4.00;99.90;;;;;;8249202;28;20054;-70
2020/12/13 14:40:06;;;;;;;53.87;22.27;;;4.60;99.90;;;;;;8251448;28;20049;-70
2020/12/13 14:44:08;;;;;;;54.37;22.23;;;4.40;99.90;;;;;;8247807;28;20085;-70
2020/12/13 14:48:09;;;;;;;49.57;20.93;;;4.30;99.90;;;;;;8247787;28;20074;-71
2020/12/13 14:56:38;;;;;;;50.15;20.73;;;4.10;99.90;;;;;;8252103;28;20392;-70
2020/12/13 15:00:40;;;;;;;51.90;21.50;;;4.20;99.90;;;;;;8251942;28;20048;-70
2020/12/13 15:04:41;;;;;;;59.40;22.07;;;4.10;99.90;;;;;;8248594;28;21255;-70
2020/12/13 15:08:43;;;;;;;50.60;21.33;;;4.00;99.90;;;;;;8258842;28;20190;-70
2020/12/13 15:12:46;;;;;;;50.95;18.73;;;3.60;99.90;;;;;;8262500;28;20050;-70
2020/12/13 15:21:27;;;;;;;54.95;19.33;;;3.90;99.90;;;;;;8167479;28;20058;-70
2020/12/13 15:25:28;;;;;;;59.03;21.27;;;4.20;99.90;;;;;;8220414;28;20100;-70
2020/12/13 15:29:30;;;;;;;64.17;22.73;;;3.90;99.90;;;;;;8252908;28;20460;-70
2020/12/13 15:33:31;;;;;;;77.53;23.47;;;4.10;99.90;;;;;;8263057;28;20475;-70
2020/12/13 15:37:32;;;;;;;61.30;22.80;;;4.10;99.90;;;;;;8230721;28;20775;-71
2020/12/13 15:41:35;;;;;;;54.83;17.97;;;4.00;99.90;;;;;;8256655;28;20062;-72
2020/12/13 15:45:36;;;;;;;;;;;4.40;99.90;;;;;;8258840;28;20569;-72
2020/12/13 15:49:37;;;;;;;65.78;22.35;;;4.20;99.90;;;;;;8266384;28;19992;-72
2020/12/13 15:53:43;;;;;;;65.53;23.60;;;4.60;99.90;;;;;;8253024;28;20530;-71
2020/12/13 15:57:45;;;;;;;61.05;20.90;;;3.90;99.90;;;;;;8260839;28;20704;-71
2020/12/13 16:01:47;;;;;;;67.60;22.47;;;4.00;99.90;;;;;;8239624;28;20081;-72
2020/12/13 16:05:49;;;;;;;73.93;24.60;;;4.30;99.90;;;;;;8251167;28;20470;-71
2020/12/13 16:09:51;;;;;;;71.78;24.35;;;3.70;99.90;;;;;;8244602;28;20049;-72
2020/12/13 16:13:52;;;;;;;63.70;22.53;;;4.10;99.90;;;;;;8256298;28;21232;-72
2020/12/13 16:17:53;;;;;;;70.97;23.83;;;4.50;99.90;;;;;;8259008;28;20049;-72
2020/12/13 16:21:55;;;;;;;62.03;23.75;;;4.20;99.90;;;;;;8238921;28;20086;-71
2020/12/13 16:25:58;;;;;;;66.07;23.43;;;4.00;99.90;;;;;;8231869;28;20065;-72
2020/12/13 16:29:59;;;;;;;66.40;22.88;;;4.00;99.90;;;;;;8252814;28;20119;-72
2020/12/13 16:34:00;;;;;;;62.80;23.30;;;4.00;99.90;;;;;;8229461;28;20133;-71
2020/12/13 16:42:10;;;;;;;73.43;22.95;;;4.30;99.90;;;;;;8265714;28;20058;-72
2020/12/13 16:46:32;;;;;;;61.47;20.85;;;4.60;99.90;;;;;;8237778;28;20042;-72
2020/12/13 16:50:55;;;;;;;63.58;22.77;;;4.40;99.90;;;;;;8244305;28;20662;-71
2020/12/13 16:55:03;;;;;;;63.58;21.85;;;4.50;99.90;;;;;;8241117;28;20046;-71
2020/12/13 16:59:05;;;;;;;68.05;21.42;;;4.80;99.90;;;;;;8233298;28;20038;-71
2020/12/13 17:03:06;;;;;;;57.00;20.47;;;4.60;99.90;;;;;;8259577;28;20113;-71
2020/12/13 17:07:09;;;;;;;61.28;20.70;;;4.40;99.90;;;;;;8260368;28;20070;-71
2020/12/13 17:11:12;;;;;;;69.05;22.23;;;4.40;99.90;;;;;;8255296;28;20069;-72
2020/12/13 17:15:14;;;;;;;65.00;22.38;;;4.00;99.90;;;;;;8244125;28;20093;-71
2020/12/13 17:19:16;;;;;;;78.03;22.13;;;4.20;99.90;;;;;;8242471;28;20534;-70
2020/12/13 17:23:18;;;;;;;65.18;19.23;;;4.10;99.90;;;;;;8259546;28;20084;-71
2020/12/13 17:27:19;;;;;;;59.78;21.95;;;4.50;99.90;;;;;;8255515;28;20439;-70
2020/12/13 17:31:29;;;;;;;80.35;23.02;;;4.10;99.90;;;;;;8258252;28;20054;-71
2020/12/13 17:35:31;;;;;;;66.10;21.20;;;4.10;99.90;;;;;;8252812;28;20076;-71
2020/12/13 17:39:32;;;;;;;69.90;20.87;;;4.00;99.90;;;;;;8236939;28;20049;-70
2020/12/13 17:43:37;;;;;;;63.07;21.57;;;4.20;99.90;;;;;;8262590;28;20476;-70
2020/12/13 17:48:00;;;;;;;76.50;21.42;;;4.30;99.90;;;;;;8222829;28;20101;-70
2020/12/13 17:56:24;;;;;;;70.10;18.60;;;3.90;99.90;;;;;;8252183;28;20084;-71
2020/12/13 18:00:29;;;;;;;70.07;17.98;;;3.80;99.90;;;;;;8232737;28;20498;-71
2020/12/13 18:04:31;;;;;;;126.43;21.27;;;4.20;99.90;;;;;;8263268;28;20058;-71
2020/12/13 18:08:32;;;;;;;55.87;19.27;;;4.70;99.90;;;;;;8250326;28;20474;-71
2020/12/13 18:12:35;;;;;;;75.67;18.93;;;4.00;99.90;;;;;;8248523;28;21035;-71
2020/12/13 18:16:37;;;;;;;85.53;20.00;;;4.10;99.90;;;;;;8236202;28;20042;-71
2020/12/13 18:20:39;;;;;;;69.40;18.98;;;3.80;99.90;;;;;;8256115;28;20511;-71
2020/12/13 18:24:40;;;;;;;52.35;17.77;;;3.90;99.90;;;;;;8251732;28;20523;-71
2020/12/13 18:28:42;;;;;;;64.43;15.17;;;4.30;99.90;;;;;;8234237;28;20046;-71
2020/12/13 18:32:43;;;;;;;114.95;19.42;;;3.60;99.90;;;;;;8238349;28;20496;-71
2020/12/13 18:36:48;;;;;;;63.13;17.90;;;3.80;99.90;;;;;;8245081;28;20050;-71
2020/12/13 18:40:50;;;;;;;61.30;17.45;;;3.70;99.90;;;;;;8250084;28;20128;-70
2020/12/13 18:44:51;;;;;;;75.50;19.20;;;4.20;99.90;;;;;;8235122;28;20045;-71
2020/12/13 18:48:52;;;;;;;127.53;20.77;;;3.70;99.90;;;;;;8254423;28;20586;-70
2020/12/13 18:52:54;;;;;;;66.57;18.93;;;4.50;99.90;;;;;;8260007;28;20569;-70
2020/12/13 18:56:55;;;;;;;67.83;20.07;;;4.10;99.90;;;;;;8241514;28;20510;-70
2020/12/13 19:00:58;;;;;;;56.70;18.00;;;4.20;99.90;;;;;;8224075;28;20060;-70
2020/12/13 19:05:00;;;;;;;65.70;19.08;;;3.80;99.90;;;;;;8241926;28;20137;-71
2020/12/13 19:09:03;;;;;;;71.97;21.00;;;4.40;99.90;;;;;;8248189;28;20096;-71
2020/12/13 19:13:06;;;;;;;57.25;19.00;;;4.00;99.90;;;;;;8245249;28;20054;-70
2020/12/13 19:17:08;;;;;;;97.00;18.77;;;4.00;99.90;;;;;;8236629;28;20046;-71
2020/12/13 19:21:13;;;;;;;66.88;19.42;;;5.00;99.90;;;;;;8250803;28;20043;-71
2020/12/13 19:25:14;;;;;;;60.97;19.23;;;4.20;99.90;;;;;;8231460;28;20416;-70
2020/12/13 19:29:16;;;;;;;68.73;18.87;;;4.00;99.90;;;;;;8215443;28;20058;-71
2020/12/13 19:33:21;;;;;;;64.80;19.17;;;4.10;99.90;;;;;;8236233;28;20134;-71
2020/12/13 19:37:24;;;;;;;81.07;20.87;;;3.90;99.90;;;;;;8232715;28;20046;-71
2020/12/13 19:41:25;;;;;;;69.22;19.48;;;4.30;99.90;;;;;;8249934;28;20448;-71
2020/12/13 19:45:27;;;;;;;;;;;4.20;99.90;;;;;;8233500;28;20046;-72
2020/12/13 19:49:28;;;;;;;48.28;14.93;;;4.40;99.90;;;;;;8258671;28;19922;-72
2020/12/13 19:53:33;;;;;;;72.27;23.00;;;4.20;99.90;;;;;;8231627;28;20460;-72
2020/12/13 19:57:35;;;;;;;58.05;20.58;;;4.40;99.90;;;;;;8233867;28;20054;-72
2020/12/13 20:01:36;;;;;;;69.38;26.50;;;4.50;99.90;;;;;;8248718;28;20046;-72
2020/12/13 20:05:38;;;;;;;71.47;19.98;;;4.50;99.90;;;;;;8214575;28;20046;-72
2020/12/13 20:09:40;;;;;;;63.15;20.98;;;4.80;99.90;;;;;;8246707;28;20077;-72
2020/12/13 20:14:11;;;;;;;68.07;23.17;;;4.50;99.90;;;;;;8255340;28;20100;-72
2020/12/13 21:21:58;;;;;;;97.78;23.73;;;4.80;99.90;;;;;;8249718;28;20038;-71
2020/12/13 21:47:34;;;;;;;79.63;22.40;;;4.90;99.90;;;;;;8226841;28;20459;-71
2020/12/13 21:51:35;;;;;;;71.47;19.85;;;4.50;99.90;;;;;;8227172;28;20054;-72
2020/12/13 21:59:46;;;;;;;88.78;23.63;;;5.10;99.90;;;;;;8252689;28;20062;-71
2020/12/13 22:04:33;;;;;;;77.68;22.33;;;4.40;99.90;;;;;;8260066;28;20050;-71
2020/12/13 22:26:33;;;;;;;80.65;21.23;;;4.30;99.90;;;;;;8219407;28;20157;-71
2020/12/13 22:29:30;;;;;;;81.85;21.55;;;5.10;99.90;;;;;;8244776;28;20053;-70
2020/12/13 22:33:32;;;;;;;70.97;23.53;;;4.60;99.90;;;;;;8220966;28;20700;-71
2020/12/13 22:37:33;;;;;;;77.00;21.83;;;4.80;99.90;;;;;;8233900;28;20492;-71
2020/12/13 22:41:35;;;;;;;70.32;21.85;;;4.80;99.90;;;;;;8249257;28;20669;-71
2020/12/13 22:45:37;;;;;;;74.53;22.40;;;4.70;99.90;;;;;;8238174;28;20140;-71
2020/12/13 22:49:38;;;;;;;64.03;20.77;;;5.30;99.90;;;;;;8227542;28;20046;-71
2020/12/13 22:53:40;;;;;;;81.13;24.13;;;5.30;99.90;;;;;;8239218;28;20108;-71
2020/12/13 22:57:42;;;;;;;71.47;21.93;;;4.70;99.90;;;;;;8229336;28;20050;-71
2020/12/13 23:01:44;;;;;;;70.20;22.30;;;4.70;99.90;;;;;;8227053;28;20050;-71
2020/12/13 23:05:45;;;;;;;74.78;22.90;;;4.80;99.90;;;;;;8227499;28;20057;-71
2020/12/13 23:09:47;;;;;;;72.67;21.93;;;4.60;99.90;;;;;;8238954;28;20062;-71
2020/12/13 23:13:48;;;;;;;75.43;22.60;;;5.20;99.90;;;;;;8230824;28;20081;-71
2020/12/13 23:17:50;;;;;;;65.03;18.83;;;4.50;99.90;;;;;;8230926;28;20050;-71